sensor_id;sensor_type;location;lat;lon;timestamp;P1;durP1;ratioP1;P2;durP2;ratioP2
75156;SDS011;63736;50.076;8.198;2023-02-08T08:42:50;892.07;;;492.33;;
75156;SDS011;63736;50.076;8.198;2023-02-08T08:45:15;964.77;;;415.80;;
75156;SDS011;63736;50.076;8.198;2023-02-08T08:47:40;942.03;;;416.77;;
75156;SDS011;63736;50.076;8.198;2023-02-08T08:50:06;967.73;;;444.20;;
75156;SDS011;63736;50.076;8.198;2023-02-08T08:52:31;976.30;;;450.60;;
75156;SDS011;63736;50.076;8.198;2023-02-08T08:54:56;955.90;;;409.43;;
75156;SDS011;63736;50.076;8.198;2023-02-08T08:57:21;997.67;;;466.43;;
75156;SDS011;63736;50.076;8.198;2023-02-08T08:59:47;1010.50;;;463.17;;
75156;SDS011;63736;50.076;8.198;2023-02-08T09:02:12;1029.33;;;459.67;;
75156;SDS011;63736;50.076;8.198;2023-02-08T09:04:39;1009.22;;;460.67;;
75156;SDS011;63736;50.076;8.198;2023-02-08T09:07:07;985.60;;;450.42;;
75156;SDS011;63736;50.076;8.198;2023-02-08T09:09:33;972.05;;;460.92;;
75156;SDS011;63736;50.076;8.198;2023-02-08T09:11:59;937.73;;;417.43;;
75156;SDS011;63736;50.076;8.198;2023-02-08T09:14:25;983.95;;;452.33;;
75156;SDS011;63736;50.076;8.198;2023-02-08T09:16:51;988.90;;;492.77;;
75156;SDS011;63736;50.076;8.198;2023-02-08T09:19:16;944.17;;;439.13;;
75156;SDS011;63736;50.076;8.198;2023-02-08T09:21:42;939.63;;;426.60;;
75156;SDS011;63736;50.076;8.198;2023-02-08T09:24:07;962.63;;;452.88;;
75156;SDS011;63736;50.076;8.198;2023-02-08T09:26:33;972.50;;;478.27;;
75156;SDS011;63736;50.076;8.198;2023-02-08T09:28:59;971.60;;;467.93;;
75156;SDS011;63736;50.076;8.198;2023-02-08T09:31:25;990.92;;;486.20;;
75156;SDS011;63736;50.076;8.198;2023-02-08T09:33:54;965.23;;;456.30;;
75156;SDS011;63736;50.076;8.198;2023-02-08T09:36:21;938.78;;;409.60;;
75156;SDS011;63736;50.076;8.198;2023-02-08T09:38:48;1147.70;;;496.83;;
75156;SDS011;63736;50.076;8.198;2023-02-08T09:46:50;999.77;;;432.67;;
75156;SDS011;63736;50.076;8.198;2023-02-08T09:49:22;1021.75;;;463.15;;
75156;SDS011;63736;50.076;8.198;2023-02-08T09:52:03;1075.75;;;676.45;;
75156;SDS011;63736;50.076;8.198;2023-02-08T09:54:42;1071.53;;;670.70;;
75156;SDS011;63736;50.076;8.198;2023-02-08T09:57:13;1059.35;;;719.65;;
75156;SDS011;63736;50.076;8.198;2023-02-08T10:02:18;962.85;;;760.58;;
75156;SDS011;63736;50.076;8.198;2023-02-08T10:04:56;1165.15;;;612.35;;
75156;SDS011;63736;50.076;8.198;2023-02-08T10:07:34;1028.83;;;527.03;;
75156;SDS011;63736;50.076;8.198;2023-02-08T10:10:01;1026.80;;;648.95;;
75156;SDS011;63736;50.076;8.198;2023-02-08T10:41:07;945.37;;;740.10;;
75156;SDS011;63736;50.076;8.198;2023-02-08T10:43:43;906.45;;;809.15;;
75156;SDS011;63736;50.076;8.198;2023-02-08T10:46:24;1069.18;;;927.35;;
75156;SDS011;63736;50.076;8.198;2023-02-08T10:49:10;1109.90;;;482.83;;
75156;SDS011;63736;50.076;8.198;2023-02-08T10:54:10;500.90;;;223.55;;
75156;SDS011;63736;50.076;8.198;2023-02-08T11:02:20;985.97;;;700.60;;
75156;SDS011;63736;50.076;8.198;2023-02-08T11:04:56;951.35;;;724.70;;
75156;SDS011;63736;50.076;8.198;2023-02-08T11:07:22;974.30;;;765.83;;
75156;SDS011;63736;50.076;8.198;2023-02-08T11:09:48;980.57;;;768.73;;
75156;SDS011;63736;50.076;8.198;2023-02-08T11:12:17;965.50;;;770.87;;
75156;SDS011;63736;50.076;8.198;2023-02-08T11:14:47;1086.57;;;828.80;;
75156;SDS011;63736;50.076;8.198;2023-02-08T11:17:33;1034.95;;;781.53;;
75156;SDS011;63736;50.076;8.198;2023-02-08T11:19:58;944.43;;;707.80;;
75156;SDS011;63736;50.076;8.198;2023-02-08T11:22:25;951.55;;;663.45;;
75156;SDS011;63736;50.076;8.198;2023-02-08T11:24:53;946.15;;;601.40;;
75156;SDS011;63736;50.076;8.198;2023-02-08T11:30:09;952.63;;;654.07;;
75156;SDS011;63736;50.076;8.198;2023-02-08T11:37:49;938.28;;;722.05;;
75156;SDS011;63736;50.076;8.198;2023-02-08T11:40:30;956.58;;;675.47;;
75156;SDS011;63736;50.076;8.198;2023-02-08T11:42:59;958.10;;;686.63;;
75156;SDS011;63736;50.076;8.198;2023-02-08T11:45:28;955.97;;;736.23;;
75156;SDS011;63736;50.076;8.198;2023-02-08T11:48:03;928.33;;;702.42;;
75156;SDS011;63736;50.076;8.198;2023-02-08T11:50:43;930.30;;;681.95;;
75156;SDS011;63736;50.076;8.198;2023-02-08T11:53:26;904.30;;;607.63;;
75156;SDS011;63736;50.076;8.198;2023-02-08T16:31:47;794.83;;;534.87;;
75156;SDS011;63736;50.076;8.198;2023-02-08T17:23:53;355.07;;;63.77;;
75156;SDS011;63736;50.076;8.198;2023-02-08T17:28:53;291.10;;;31.17;;
75156;SDS011;63736;50.076;8.198;2023-02-08T17:31:19;279.53;;;29.63;;
75156;SDS011;63736;50.076;8.198;2023-02-08T17:33:44;315.83;;;33.13;;
75156;SDS011;63736;50.076;8.198;2023-02-08T17:36:11;317.80;;;37.50;;
75156;SDS011;63736;50.076;8.198;2023-02-08T17:38:38;330.45;;;51.97;;
75156;SDS011;63736;50.076;8.198;2023-02-08T17:41:05;337.43;;;40.97;;
75156;SDS011;63736;50.076;8.198;2023-02-08T17:45:56;342.77;;;43.83;;
75156;SDS011;63736;50.076;8.198;2023-02-08T17:48:22;351.77;;;47.53;;
75156;SDS011;63736;50.076;8.198;2023-02-08T17:50:47;348.03;;;44.07;;
75156;SDS011;63736;50.076;8.198;2023-02-08T17:55:41;341.10;;;44.83;;
75156;SDS011;63736;50.076;8.198;2023-02-08T18:00:32;306.83;;;34.03;;
75156;SDS011;63736;50.076;8.198;2023-02-08T18:02:58;273.38;;;31.25;;
75156;SDS011;63736;50.076;8.198;2023-02-08T18:07:51;326.83;;;36.85;;
75156;SDS011;63736;50.076;8.198;2023-02-08T18:10:17;335.50;;;44.05;;
75156;SDS011;63736;50.076;8.198;2023-02-08T18:15:09;349.33;;;44.37;;
75156;SDS011;63736;50.076;8.198;2023-02-08T18:17:37;948.97;;;771.37;;
75156;SDS011;63736;50.076;8.198;2023-02-08T18:20:03;1067.27;;;730.20;;
75156;SDS011;63736;50.076;8.198;2023-02-08T18:58:50;235.85;;;57.22;;
75156;SDS011;63736;50.076;8.198;2023-02-08T19:01:18;185.23;;;27.98;;
75156;SDS011;63736;50.076;8.198;2023-02-08T19:03:45;300.42;;;38.67;;
75156;SDS011;63736;50.076;8.198;2023-02-08T19:08:37;332.88;;;51.55;;
75156;SDS011;63736;50.076;8.198;2023-02-08T19:15:55;390.77;;;66.93;;
75156;SDS011;63736;50.076;8.198;2023-02-08T19:18:20;407.73;;;67.60;;
75156;SDS011;63736;50.076;8.198;2023-02-08T19:20:46;382.23;;;64.10;;
75156;SDS011;63736;50.076;8.198;2023-02-08T19:23:11;421.23;;;67.87;;
75156;SDS011;63736;50.076;8.198;2023-02-08T19:30:28;650.70;;;132.57;;
75156;SDS011;63736;50.076;8.198;2023-02-08T19:42:38;596.13;;;196.45;;
75156;SDS011;63736;50.076;8.198;2023-02-08T20:02:04;627.50;;;529.23;;
75156;SDS011;63736;50.076;8.198;2023-02-08T20:04:30;965.17;;;864.37;;
75156;SDS011;63736;50.076;8.198;2023-02-08T20:06:56;984.80;;;877.47;;
75156;SDS011;63736;50.076;8.198;2023-02-08T20:21:29;325.90;;;71.13;;
75156;SDS011;63736;50.076;8.198;2023-02-08T20:23:54;425.65;;;57.80;;
75156;SDS011;63736;50.076;8.198;2023-02-08T20:26:22;891.83;;;797.05;;
75156;SDS011;63736;50.076;8.198;2023-02-08T20:28:50;920.10;;;835.70;;
75156;SDS011;63736;50.076;8.198;2023-02-08T20:31:25;1082.80;;;659.13;;
75156;SDS011;63736;50.076;8.198;2023-02-08T22:50:46;759.47;;;409.13;;
75156;SDS011;63736;50.076;8.198;2023-02-08T22:53:11;976.03;;;878.47;;
75156;SDS011;63736;50.076;8.198;2023-02-08T22:58:02;726.47;;;651.43;;
